BLU44 KMCO-KDFW
Flight info
| Callsign | BLU44 |
|---|---|
| Flight time | 2h 49m |
| Altitude | 38000 |
| Route | OSPRY1 REMIS Y280 REDFN Q105 HRV J58 AEX PNUTS BEREE3 |
| Aircraft | B77W/H-SDE1E2E3FGHIJ2J3J4J5M1RWXY/LB1D1 |
Departure
| Time | 2026-05-04 10:00 |
|---|---|
| Airport | Orlando International Airport (KMCO) |
Arrival
| Time | 2026-05-04 12:49 |
|---|---|
| Airport | Dallas Fort Worth International Airport (KDFW) |
| Time | Latitude | Longitude | Altitude | Speed | Heading |
|---|---|---|---|---|---|
| 2026-05-04 08:37 | 28.42677 | -81.30020 | 108 ft | 0 kts | 234° |
| 2026-05-04 09:37 | 28.42688 | -81.29940 | 105 ft | 3 kts | 262° |
| 2026-05-04 09:37 | 28.42690 | -81.29917 | 107 ft | 3 kts | 262° |
| 2026-05-04 09:38 | 28.42692 | -81.29900 | 107 ft | 1 kts | 263° |
| 2026-05-04 09:38 | 28.42695 | -81.29883 | 107 ft | 3 kts | 233° |
| 2026-05-04 09:38 | 28.42705 | -81.29874 | 105 ft | 3 kts | 168° |
| 2026-05-04 09:38 | 28.42724 | -81.29880 | 107 ft | 3 kts | 166° |
| 2026-05-04 09:39 | 28.42735 | -81.29883 | 105 ft | 0 kts | 179° |
| 2026-05-04 09:39 | 28.42736 | -81.29883 | 105 ft | 2 kts | 179° |
| 2026-05-04 09:42 | 28.42560 | -81.29883 | 108 ft | 8 kts | 188° |
| 2026-05-04 09:43 | 28.42509 | -81.29901 | 108 ft | 8 kts | 205° |
| 2026-05-04 09:43 | 28.42469 | -81.29937 | 108 ft | 8 kts | 228° |
| 2026-05-04 09:43 | 28.42442 | -81.29988 | 108 ft | 8 kts | 249° |
| 2026-05-04 09:43 | 28.42434 | -81.30047 | 108 ft | 8 kts | 270° |
| 2026-05-04 09:44 | 28.42427 | -81.30105 | 108 ft | 8 kts | 240° |
| 2026-05-04 09:44 | 28.42385 | -81.30140 | 108 ft | 8 kts | 216° |
| 2026-05-04 09:44 | 28.42364 | -81.30194 | 108 ft | 8 kts | 259° |
| 2026-05-04 09:46 | 28.42341 | -81.30611 | 110 ft | 8 kts | 265° |
| 2026-05-04 09:46 | 28.42338 | -81.30669 | 110 ft | 8 kts | 265° |
| 2026-05-04 09:46 | 28.42334 | -81.30728 | 111 ft | 8 kts | 266° |
| 2026-05-04 09:47 | 28.42330 | -81.30788 | 108 ft | 8 kts | 265° |
| 2026-05-04 09:47 | 28.42325 | -81.30848 | 105 ft | 8 kts | 265° |
| 2026-05-04 09:49 | 28.42350 | -81.31260 | 105 ft | 8 kts | 276° |
| 2026-05-04 09:49 | 28.42351 | -81.31319 | 105 ft | 8 kts | 270° |
| 2026-05-04 09:49 | 28.42351 | -81.31379 | 105 ft | 8 kts | 269° |
| 2026-05-04 09:51 | 28.42348 | -81.31732 | 110 ft | 7 kts | 270° |
| 2026-05-04 09:51 | 28.42340 | -81.31784 | 109 ft | 7 kts | 246° |
| 2026-05-04 09:51 | 28.42307 | -81.31821 | 109 ft | 7 kts | 207° |
| 2026-05-04 09:51 | 28.42261 | -81.31834 | 111 ft | 7 kts | 193° |
| 2026-05-04 09:52 | 28.42214 | -81.31847 | 111 ft | 7 kts | 194° |
| 2026-05-04 09:52 | 28.42168 | -81.31860 | 108 ft | 7 kts | 194° |
| 2026-05-04 09:52 | 28.42122 | -81.31872 | 110 ft | 7 kts | 190° |
| 2026-05-04 09:52 | 28.42075 | -81.31877 | 109 ft | 7 kts | 182° |
| 2026-05-04 09:53 | 28.42027 | -81.31878 | 108 ft | 7 kts | 180° |
| 2026-05-04 09:53 | 28.41980 | -81.31878 | 107 ft | 7 kts | 179° |
| 2026-05-04 09:53 | 28.41932 | -81.31877 | 107 ft | 7 kts | 179° |
| 2026-05-04 09:53 | 28.41885 | -81.31876 | 108 ft | 7 kts | 179° |
| 2026-05-04 09:54 | 28.41837 | -81.31875 | 108 ft | 7 kts | 179° |
| 2026-05-04 09:54 | 28.41790 | -81.31875 | 108 ft | 7 kts | 179° |
| 2026-05-04 09:54 | 28.41742 | -81.31874 | 107 ft | 7 kts | 180° |
| 2026-05-04 09:54 | 28.41695 | -81.31874 | 109 ft | 7 kts | 179° |
| 2026-05-04 09:55 | 28.41647 | -81.31873 | 107 ft | 7 kts | 179° |
| 2026-05-04 09:55 | 28.41600 | -81.31873 | 106 ft | 7 kts | 185° |
| 2026-05-04 09:55 | 28.41562 | -81.31893 | 104 ft | 5 kts | 228° |
| 2026-05-04 09:55 | 28.41551 | -81.31927 | 104 ft | 5 kts | 256° |
| 2026-05-04 09:56 | 28.41546 | -81.31963 | 104 ft | 5 kts | 265° |
| 2026-05-04 09:56 | 28.41545 | -81.31999 | 104 ft | 5 kts | 269° |
| 2026-05-04 09:56 | 28.41545 | -81.32035 | 105 ft | 4 kts | 269° |
| 2026-05-04 09:56 | 28.41544 | -81.32058 | 105 ft | 0 kts | 269° |
| 2026-05-04 09:57 | 28.41544 | -81.32059 | 105 ft | 1 kts | 269° |
| 2026-05-04 09:58 | 28.41544 | -81.32099 | 106 ft | 6 kts | 271° |
| 2026-05-04 09:58 | 28.41549 | -81.32142 | 106 ft | 6 kts | 284° |
| 2026-05-04 09:58 | 28.41570 | -81.32178 | 107 ft | 6 kts | 318° |
| 2026-05-04 10:00 | 28.45175 | -81.32297 | 2805 ft | 210 kts | 1° |
| 2026-05-04 10:00 | 28.46689 | -81.32309 | 3520 ft | 228 kts | 1° |
| 2026-05-04 10:02 | 28.58242 | -81.34633 | 7866 ft | 266 kts | 316° |
| 2026-05-04 10:04 | 28.59609 | -81.48393 | 14722 ft | 269 kts | 264° |
| 2026-05-04 10:04 | 28.58953 | -81.50553 | 14650 ft | 317 kts | 238° |
| 2026-05-04 10:04 | 28.57484 | -81.52591 | 14664 ft | 351 kts | 232° |
| 2026-05-04 10:04 | 28.55804 | -81.54793 | 14604 ft | 384 kts | 231° |
| 2026-05-04 10:05 | 28.54029 | -81.57103 | 14573 ft | 389 kts | 231° |
| 2026-05-04 10:05 | 28.52242 | -81.59425 | 14541 ft | 390 kts | 231° |
| 2026-05-04 10:05 | 28.50464 | -81.61742 | 14534 ft | 390 kts | 231° |
| 2026-05-04 10:05 | 28.48701 | -81.64052 | 15010 ft | 394 kts | 232° |
| 2026-05-04 10:06 | 28.46907 | -81.66409 | 16103 ft | 394 kts | 232° |
| 2026-05-04 10:06 | 28.45114 | -81.68767 | 17196 ft | 396 kts | 232° |
| 2026-05-04 10:06 | 28.43304 | -81.71151 | 18179 ft | 400 kts | 232° |
| 2026-05-04 10:08 | 28.32212 | -81.85739 | 23114 ft | 420 kts | 234° |
| 2026-05-04 10:08 | 28.30351 | -81.88293 | 23772 ft | 418 kts | 240° |
| 2026-05-04 10:08 | 28.29047 | -81.91223 | 24276 ft | 416 kts | 255° |
| 2026-05-04 10:08 | 28.28406 | -81.94394 | 24884 ft | 413 kts | 261° |
| 2026-05-04 10:09 | 28.27846 | -81.97602 | 25526 ft | 416 kts | 261° |
| 2026-05-04 10:09 | 28.27260 | -82.00832 | 26207 ft | 418 kts | 261° |
| 2026-05-04 10:09 | 28.26662 | -82.04053 | 26871 ft | 420 kts | 261° |
| 2026-05-04 10:09 | 28.26051 | -82.07296 | 27504 ft | 422 kts | 261° |
| 2026-05-04 10:10 | 28.25439 | -82.10517 | 28093 ft | 424 kts | 261° |
| 2026-05-04 10:10 | 28.24812 | -82.13801 | 28655 ft | 427 kts | 261° |
| 2026-05-04 10:10 | 28.24181 | -82.17097 | 29187 ft | 429 kts | 261° |
| 2026-05-04 10:10 | 28.23544 | -82.20414 | 29706 ft | 432 kts | 261° |
| 2026-05-04 10:11 | 28.22903 | -82.23752 | 30176 ft | 434 kts | 261° |
| 2026-05-04 10:11 | 28.22259 | -82.27098 | 30541 ft | 436 kts | 261° |
| 2026-05-04 10:11 | 28.21610 | -82.30467 | 30904 ft | 438 kts | 261° |
| 2026-05-04 10:11 | 28.20958 | -82.33844 | 31243 ft | 439 kts | 261° |
| 2026-05-04 10:12 | 28.20305 | -82.37224 | 31558 ft | 440 kts | 261° |
| 2026-05-04 10:12 | 28.19657 | -82.40572 | 31830 ft | 442 kts | 262° |
| 2026-05-04 10:12 | 28.18997 | -82.43980 | 32090 ft | 443 kts | 262° |
| 2026-05-04 10:12 | 28.18336 | -82.47388 | 32331 ft | 444 kts | 262° |
| 2026-05-04 10:13 | 28.17672 | -82.50808 | 32550 ft | 445 kts | 262° |
| 2026-05-04 10:13 | 28.17005 | -82.54233 | 32806 ft | 445 kts | 262° |
| 2026-05-04 10:13 | 28.16337 | -82.57662 | 33083 ft | 444 kts | 262° |
| 2026-05-04 10:13 | 28.15672 | -82.61068 | 33439 ft | 441 kts | 262° |
| 2026-05-04 10:14 | 28.15011 | -82.64446 | 33804 ft | 439 kts | 262° |
| 2026-05-04 10:14 | 28.14352 | -82.67815 | 34128 ft | 437 kts | 262° |
| 2026-05-04 10:16 | 28.09789 | -82.91059 | 36361 ft | 420 kts | 261° |
| 2026-05-04 10:16 | 28.09181 | -82.94259 | 36959 ft | 412 kts | 261° |
| 2026-05-04 10:16 | 28.08588 | -82.97422 | 37441 ft | 408 kts | 261° |
| 2026-05-04 10:16 | 28.08011 | -83.00516 | 37790 ft | 407 kts | 261° |
| 2026-05-04 10:17 | 28.07424 | -83.03652 | 37986 ft | 408 kts | 261° |
| 2026-05-04 10:17 | 28.06833 | -83.06804 | 38032 ft | 412 kts | 261° |
| 2026-05-04 10:19 | 28.02074 | -83.31861 | 38073 ft | 406 kts | 261° |
| 2026-05-04 10:19 | 28.00880 | -83.38108 | 38073 ft | 406 kts | 261° |
| 2026-05-04 10:20 | 27.99823 | -83.44375 | 38064 ft | 405 kts | 266° |
| 2026-05-04 10:20 | 27.99447 | -83.50741 | 38073 ft | 405 kts | 268° |
| 2026-05-04 10:21 | 27.99163 | -83.57110 | 38068 ft | 406 kts | 269° |
| 2026-05-04 10:21 | 27.98837 | -83.63466 | 38075 ft | 408 kts | 268° |
| 2026-05-04 10:22 | 27.98286 | -83.73086 | 38068 ft | 409 kts | 268° |
| 2026-05-04 10:23 | 27.97903 | -83.79523 | 38071 ft | 410 kts | 268° |
| 2026-05-04 10:25 | 27.96345 | -84.05208 | 38066 ft | 410 kts | 268° |
| 2026-05-04 10:25 | 27.95948 | -84.11643 | 38066 ft | 410 kts | 268° |
| 2026-05-04 10:26 | 27.95548 | -84.18070 | 38065 ft | 410 kts | 268° |
| 2026-05-04 10:26 | 27.95148 | -84.24459 | 38064 ft | 410 kts | 268° |
| 2026-05-04 10:27 | 27.94743 | -84.30878 | 38037 ft | 409 kts | 268° |
| 2026-05-04 10:27 | 27.94335 | -84.37281 | 38060 ft | 408 kts | 268° |
| 2026-05-04 10:28 | 27.93926 | -84.43669 | 38059 ft | 407 kts | 268° |
| 2026-05-04 10:28 | 27.93516 | -84.50014 | 38064 ft | 407 kts | 268° |
| 2026-05-04 10:29 | 27.93101 | -84.56402 | 38072 ft | 407 kts | 268° |
| 2026-05-04 10:29 | 27.92683 | -84.62793 | 38066 ft | 408 kts | 268° |
| 2026-05-04 10:30 | 27.92261 | -84.69184 | 38066 ft | 408 kts | 268° |
| 2026-05-04 10:30 | 27.91837 | -84.75577 | 38070 ft | 408 kts | 268° |
| 2026-05-04 10:31 | 27.91412 | -84.81942 | 38073 ft | 409 kts | 268° |
| 2026-05-04 10:32 | 27.89884 | -85.04436 | 38078 ft | 410 kts | 268° |
| 2026-05-04 10:33 | 27.89444 | -85.10821 | 38078 ft | 410 kts | 268° |
| 2026-05-04 10:33 | 27.88998 | -85.17245 | 38073 ft | 410 kts | 268° |
| 2026-05-04 10:34 | 27.88567 | -85.23670 | 38071 ft | 409 kts | 271° |
| 2026-05-04 10:34 | 27.89530 | -85.29883 | 38087 ft | 405 kts | 288° |
| 2026-05-04 10:35 | 27.91424 | -85.35881 | 38089 ft | 406 kts | 288° |
| 2026-05-04 10:35 | 27.93282 | -85.41909 | 38088 ft | 407 kts | 288° |
| 2026-05-04 10:36 | 27.95122 | -85.47961 | 38080 ft | 407 kts | 288° |
| 2026-05-04 10:36 | 27.96956 | -85.54027 | 38073 ft | 408 kts | 288° |
| 2026-05-04 10:37 | 27.98773 | -85.60056 | 38069 ft | 408 kts | 288° |
| 2026-05-04 10:37 | 28.00602 | -85.66135 | 38104 ft | 409 kts | 288° |
| 2026-05-04 10:39 | 28.06982 | -85.87415 | 38079 ft | 408 kts | 288° |
| 2026-05-04 10:40 | 28.08797 | -85.93495 | 38079 ft | 408 kts | 288° |
| 2026-05-04 10:40 | 28.10609 | -85.99576 | 38078 ft | 407 kts | 288° |
| 2026-05-04 10:41 | 28.12417 | -86.05652 | 38079 ft | 407 kts | 288° |
| 2026-05-04 10:41 | 28.14209 | -86.11689 | 38080 ft | 407 kts | 288° |
| 2026-05-04 10:42 | 28.15719 | -86.16783 | 38083 ft | 407 kts | 288° |
| 2026-05-04 10:42 | 28.17507 | -86.22825 | 38075 ft | 407 kts | 288° |
| 2026-05-04 10:43 | 28.19308 | -86.28922 | 38087 ft | 408 kts | 288° |
| 2026-05-04 10:45 | 28.26816 | -86.54462 | 38086 ft | 411 kts | 288° |
| 2026-05-04 10:45 | 28.28603 | -86.60570 | 38082 ft | 411 kts | 288° |
| 2026-05-04 10:46 | 28.30399 | -86.66721 | 38083 ft | 410 kts | 288° |
| 2026-05-04 10:46 | 28.31889 | -86.71827 | 38081 ft | 410 kts | 288° |
| 2026-05-04 10:47 | 28.33989 | -86.79004 | 38098 ft | 410 kts | 289° |
| 2026-05-04 10:47 | 28.35777 | -86.85104 | 38088 ft | 409 kts | 289° |
| 2026-05-04 10:49 | 28.42897 | -87.09554 | 38084 ft | 406 kts | 289° |
| 2026-05-04 10:50 | 28.44651 | -87.15607 | 38087 ft | 406 kts | 289° |
| 2026-05-04 10:52 | 28.51678 | -87.39974 | 38089 ft | 407 kts | 289° |
| 2026-05-04 10:52 | 28.53434 | -87.46093 | 38089 ft | 407 kts | 289° |
| 2026-05-04 10:54 | 28.60140 | -87.69562 | 38091 ft | 407 kts | 288° |
| 2026-05-04 10:56 | 28.67078 | -87.94029 | 38102 ft | 406 kts | 289° |
| 2026-05-04 10:57 | 28.68791 | -88.00097 | 38093 ft | 404 kts | 289° |
| 2026-05-04 10:57 | 28.70505 | -88.06181 | 38095 ft | 403 kts | 289° |
| 2026-05-04 10:58 | 28.72213 | -88.12258 | 38090 ft | 402 kts | 289° |
| 2026-05-04 10:58 | 28.73910 | -88.18320 | 38096 ft | 402 kts | 289° |
| 2026-05-04 10:59 | 28.75593 | -88.24344 | 38095 ft | 402 kts | 289° |
| 2026-05-04 10:59 | 28.77285 | -88.30413 | 38099 ft | 402 kts | 289° |
| 2026-05-04 11:00 | 28.78977 | -88.36489 | 38098 ft | 402 kts | 289° |
| 2026-05-04 11:02 | 28.85722 | -88.60840 | 38103 ft | 404 kts | 289° |
| 2026-05-04 11:05 | 29.09952 | -88.98973 | 38111 ft | 400 kts | 308° |
| 2026-05-04 11:06 | 29.13567 | -89.03797 | 38104 ft | 399 kts | 308° |
| 2026-05-04 11:06 | 29.17180 | -89.08626 | 38112 ft | 399 kts | 308° |
| 2026-05-04 11:10 | 29.42477 | -89.42583 | 38120 ft | 402 kts | 307° |
| 2026-05-04 11:12 | 29.56946 | -89.62135 | 38140 ft | 403 kts | 307° |
| 2026-05-04 11:12 | 29.60574 | -89.67052 | 38117 ft | 403 kts | 307° |
| 2026-05-04 11:13 | 29.64177 | -89.71943 | 38118 ft | 404 kts | 307° |
| 2026-05-04 11:13 | 29.67807 | -89.76874 | 38119 ft | 404 kts | 307° |
| 2026-05-04 11:14 | 29.68421 | -89.77709 | 38117 ft | 404 kts | 307° |
| 2026-05-04 11:16 | 29.85825 | -90.01660 | 38115 ft | 403 kts | 302° |
| 2026-05-04 11:16 | 29.88935 | -90.07035 | 38115 ft | 404 kts | 301° |
| 2026-05-04 11:17 | 29.92047 | -90.12429 | 38113 ft | 404 kts | 301° |
| 2026-05-04 11:19 | 30.04509 | -90.34018 | 38120 ft | 405 kts | 301° |
| 2026-05-04 11:19 | 30.07626 | -90.39432 | 38110 ft | 405 kts | 301° |
| 2026-05-04 11:20 | 30.10715 | -90.44805 | 38125 ft | 405 kts | 301° |
| 2026-05-04 11:20 | 30.13830 | -90.50231 | 38132 ft | 405 kts | 301° |
| 2026-05-04 11:22 | 30.26232 | -90.71905 | 38123 ft | 404 kts | 301° |
| 2026-05-04 11:23 | 30.29327 | -90.77332 | 38111 ft | 404 kts | 301° |
| 2026-05-04 11:25 | 30.40134 | -90.96341 | 38146 ft | 405 kts | 301° |
| 2026-05-04 11:25 | 30.43228 | -91.01801 | 38125 ft | 406 kts | 301° |
| 2026-05-04 11:27 | 30.57098 | -91.26365 | 38102 ft | 405 kts | 301° |
| 2026-05-04 11:28 | 30.60179 | -91.31842 | 38113 ft | 405 kts | 301° |
| 2026-05-04 11:28 | 30.63255 | -91.37320 | 38106 ft | 405 kts | 301° |
| 2026-05-04 11:29 | 30.66315 | -91.42773 | 38106 ft | 405 kts | 301° |
| 2026-05-04 11:29 | 30.69391 | -91.48262 | 38104 ft | 405 kts | 301° |
| 2026-05-04 11:33 | 30.90828 | -91.86716 | 38110 ft | 406 kts | 301° |
| 2026-05-04 11:33 | 30.93889 | -91.92237 | 38094 ft | 406 kts | 301° |
| 2026-05-04 11:34 | 30.96948 | -91.97764 | 38121 ft | 406 kts | 301° |
| 2026-05-04 11:34 | 31.00008 | -92.03301 | 38124 ft | 406 kts | 301° |
| 2026-05-04 11:35 | 31.03046 | -92.08805 | 38112 ft | 406 kts | 301° |
| 2026-05-04 11:35 | 31.06104 | -92.14353 | 38120 ft | 406 kts | 301° |
| 2026-05-04 11:36 | 31.09158 | -92.19901 | 38102 ft | 406 kts | 301° |
| 2026-05-04 11:36 | 31.12210 | -92.25454 | 38103 ft | 406 kts | 301° |
| 2026-05-04 11:37 | 31.15258 | -92.31008 | 38103 ft | 406 kts | 301° |
| 2026-05-04 11:37 | 31.18281 | -92.36525 | 38088 ft | 406 kts | 301° |
| 2026-05-04 11:38 | 31.21323 | -92.42084 | 38093 ft | 406 kts | 301° |
| 2026-05-04 11:38 | 31.24356 | -92.47646 | 38096 ft | 406 kts | 300° |
| 2026-05-04 11:39 | 31.26898 | -92.53487 | 38090 ft | 406 kts | 292° |
| 2026-05-04 11:41 | 31.34185 | -92.74963 | 38097 ft | 406 kts | 292° |
| 2026-05-04 11:41 | 31.36270 | -92.81103 | 38097 ft | 406 kts | 292° |
| 2026-05-04 11:42 | 31.38338 | -92.87202 | 38088 ft | 406 kts | 292° |
| 2026-05-04 11:42 | 31.40418 | -92.93349 | 38089 ft | 406 kts | 292° |
| 2026-05-04 11:43 | 31.42493 | -92.99493 | 38085 ft | 406 kts | 292° |
| 2026-05-04 11:43 | 31.44567 | -93.05643 | 38057 ft | 406 kts | 293° |
| 2026-05-04 11:44 | 31.46619 | -93.11743 | 38064 ft | 405 kts | 293° |
| 2026-05-04 11:44 | 31.48680 | -93.17877 | 38115 ft | 405 kts | 292° |
| 2026-05-04 11:45 | 31.50740 | -93.24023 | 38079 ft | 405 kts | 292° |
| 2026-05-04 11:45 | 31.52794 | -93.30163 | 38074 ft | 405 kts | 292° |
| 2026-05-04 11:46 | 31.54831 | -93.36260 | 38079 ft | 404 kts | 292° |
| 2026-05-04 11:46 | 31.56879 | -93.42405 | 38080 ft | 405 kts | 292° |
| 2026-05-04 11:47 | 31.58926 | -93.48555 | 38080 ft | 405 kts | 292° |
| 2026-05-04 11:47 | 31.60944 | -93.54716 | 38077 ft | 405 kts | 290° |
| 2026-05-04 11:48 | 31.62609 | -93.61044 | 38085 ft | 406 kts | 288° |
| 2026-05-04 11:48 | 31.64149 | -93.67376 | 38079 ft | 406 kts | 288° |
| 2026-05-04 11:49 | 31.65715 | -93.73747 | 38083 ft | 406 kts | 288° |
| 2026-05-04 11:49 | 31.67303 | -93.80118 | 38080 ft | 406 kts | 288° |
| 2026-05-04 11:50 | 31.68890 | -93.86470 | 38071 ft | 405 kts | 289° |
| 2026-05-04 11:50 | 31.70464 | -93.92768 | 38076 ft | 404 kts | 289° |
| 2026-05-04 11:51 | 31.72040 | -93.99091 | 38080 ft | 403 kts | 289° |
| 2026-05-04 11:51 | 31.73610 | -94.05407 | 38138 ft | 403 kts | 289° |
| 2026-05-04 11:52 | 31.75181 | -94.11742 | 38091 ft | 404 kts | 289° |
| 2026-05-04 11:52 | 31.76749 | -94.18083 | 38085 ft | 404 kts | 289° |
| 2026-05-04 11:53 | 31.78311 | -94.24414 | 38081 ft | 403 kts | 289° |
| 2026-05-04 11:53 | 31.79855 | -94.30684 | 38083 ft | 402 kts | 289° |
| 2026-05-04 11:55 | 31.86015 | -94.55849 | 38084 ft | 401 kts | 289° |
| 2026-05-04 11:56 | 31.87545 | -94.62142 | 38077 ft | 399 kts | 290° |
| 2026-05-04 11:56 | 31.89066 | -94.68406 | 38075 ft | 397 kts | 290° |
| 2026-05-04 11:57 | 31.90579 | -94.74650 | 38062 ft | 396 kts | 290° |
| 2026-05-04 11:57 | 31.92083 | -94.80874 | 38069 ft | 395 kts | 290° |
| 2026-05-04 11:58 | 31.93571 | -94.87045 | 38061 ft | 395 kts | 290° |
| 2026-05-04 11:58 | 31.95066 | -94.93260 | 38061 ft | 395 kts | 290° |
| 2026-05-04 11:59 | 31.96554 | -94.99469 | 38052 ft | 393 kts | 290° |
| 2026-05-04 11:59 | 31.98033 | -95.05640 | 38049 ft | 392 kts | 290° |
| 2026-05-04 12:00 | 31.99496 | -95.11765 | 38034 ft | 391 kts | 290° |
| 2026-05-04 12:00 | 32.00969 | -95.17942 | 38031 ft | 391 kts | 290° |
| 2026-05-04 12:01 | 32.02436 | -95.24097 | 38043 ft | 391 kts | 290° |
| 2026-05-04 12:02 | 32.07447 | -95.45261 | 38039 ft | 375 kts | 291° |
| 2026-05-04 12:03 | 32.08849 | -95.51197 | 38029 ft | 376 kts | 290° |
| 2026-05-04 12:03 | 32.10231 | -95.57087 | 38017 ft | 366 kts | 290° |
| 2026-05-04 12:04 | 32.10902 | -95.59955 | 37644 ft | 361 kts | 290° |
| 2026-05-04 12:04 | 32.11566 | -95.62787 | 37140 ft | 356 kts | 290° |
| 2026-05-04 12:04 | 32.12218 | -95.65564 | 36481 ft | 357 kts | 290° |
| 2026-05-04 12:04 | 32.12885 | -95.68400 | 35766 ft | 363 kts | 289° |
| 2026-05-04 12:05 | 32.13572 | -95.71327 | 34933 ft | 378 kts | 289° |
| 2026-05-04 12:05 | 32.14288 | -95.74383 | 34065 ft | 393 kts | 289° |
| 2026-05-04 12:05 | 32.15130 | -95.77449 | 33180 ft | 391 kts | 296° |
| 2026-05-04 12:05 | 32.16569 | -95.80154 | 32616 ft | 386 kts | 307° |
| 2026-05-04 12:06 | 32.18336 | -95.82457 | 32547 ft | 372 kts | 312° |
| 2026-05-04 12:06 | 32.20203 | -95.84489 | 32474 ft | 359 kts | 315° |
| 2026-05-04 12:06 | 32.22063 | -95.86377 | 32416 ft | 346 kts | 315° |
| 2026-05-04 12:06 | 32.23869 | -95.88174 | 32328 ft | 334 kts | 316° |
| 2026-05-04 12:07 | 32.25759 | -95.89666 | 32217 ft | 330 kts | 325° |
| 2026-05-04 12:07 | 32.27891 | -95.90667 | 32040 ft | 331 kts | 336° |
| 2026-05-04 12:07 | 32.30173 | -95.91147 | 31735 ft | 337 kts | 344° |
| 2026-05-04 12:07 | 32.32543 | -95.91224 | 31238 ft | 346 kts | 351° |
| 2026-05-04 12:08 | 32.34982 | -95.90967 | 30675 ft | 357 kts | 357° |
| 2026-05-04 12:08 | 32.37448 | -95.90357 | 30207 ft | 367 kts | 5° |
| 2026-05-04 12:08 | 32.39889 | -95.89335 | 29758 ft | 376 kts | 13° |
| 2026-05-04 12:08 | 32.42218 | -95.87869 | 29368 ft | 384 kts | 22° |
| 2026-05-04 12:09 | 32.44373 | -95.85953 | 29027 ft | 390 kts | 32° |
| 2026-05-04 12:09 | 32.46259 | -95.83643 | 28865 ft | 391 kts | 41° |
| 2026-05-04 12:09 | 32.47831 | -95.81013 | 28716 ft | 391 kts | 51° |
| 2026-05-04 12:09 | 32.49047 | -95.78143 | 28591 ft | 390 kts | 61° |
| 2026-05-04 12:10 | 32.49873 | -95.75120 | 28310 ft | 391 kts | 71° |
| 2026-05-04 12:10 | 32.50395 | -95.71956 | 27952 ft | 392 kts | 77° |
| 2026-05-04 12:10 | 32.50686 | -95.68744 | 27594 ft | 393 kts | 84° |
| 2026-05-04 12:10 | 32.50585 | -95.65499 | 27220 ft | 395 kts | 99° |
| 2026-05-04 12:11 | 32.49716 | -95.62447 | 26840 ft | 391 kts | 120° |
| 2026-05-04 12:11 | 32.48276 | -95.59745 | 26487 ft | 385 kts | 129° |
| 2026-05-04 12:11 | 32.46635 | -95.57261 | 26190 ft | 381 kts | 134° |
| 2026-05-04 12:11 | 32.44876 | -95.54949 | 25873 ft | 376 kts | 140° |
| 2026-05-04 12:12 | 32.42976 | -95.52920 | 25557 ft | 369 kts | 148° |
| 2026-05-04 12:12 | 32.40870 | -95.51262 | 25230 ft | 361 kts | 159° |
| 2026-05-04 12:12 | 32.38612 | -95.50060 | 24922 ft | 351 kts | 169° |
| 2026-05-04 12:12 | 32.36291 | -95.49305 | 24611 ft | 342 kts | 178° |
| 2026-05-04 12:13 | 32.33964 | -95.48939 | 24280 ft | 333 kts | 185° |
| 2026-05-04 12:14 | 32.20206 | -95.54694 | 24022 ft | 292 kts | 232° |
| 2026-05-04 12:15 | 32.18835 | -95.56427 | 24023 ft | 286 kts | 238° |
| 2026-05-04 12:15 | 32.17659 | -95.58298 | 24026 ft | 281 kts | 244° |
| 2026-05-04 12:15 | 32.16680 | -95.60272 | 24029 ft | 277 kts | 249° |
| 2026-05-04 12:15 | 32.15896 | -95.62326 | 24029 ft | 273 kts | 255° |
| 2026-05-04 12:16 | 32.15316 | -95.64442 | 24035 ft | 270 kts | 260° |
| 2026-05-04 12:16 | 32.14898 | -95.66601 | 24039 ft | 270 kts | 263° |
| 2026-05-04 12:16 | 32.14552 | -95.68778 | 24036 ft | 270 kts | 264° |
| 2026-05-04 12:16 | 32.14299 | -95.70972 | 24039 ft | 269 kts | 268° |
| 2026-05-04 12:17 | 32.14232 | -95.73146 | 24028 ft | 269 kts | 275° |
| 2026-05-04 12:17 | 32.14483 | -95.75323 | 24035 ft | 270 kts | 284° |
| 2026-05-04 12:17 | 32.14975 | -95.77562 | 24060 ft | 294 kts | 285° |
| 2026-05-04 12:17 | 32.15548 | -95.79991 | 24049 ft | 319 kts | 286° |
| 2026-05-04 12:18 | 32.16171 | -95.82607 | 24061 ft | 343 kts | 286° |
| 2026-05-04 12:18 | 32.16834 | -95.85413 | 24051 ft | 367 kts | 285° |
| 2026-05-04 12:18 | 32.17531 | -95.88381 | 24051 ft | 379 kts | 285° |
| 2026-05-04 12:18 | 32.18225 | -95.91363 | 24049 ft | 373 kts | 285° |
| 2026-05-04 12:19 | 32.18906 | -95.94296 | 24035 ft | 368 kts | 285° |
| 2026-05-04 12:19 | 32.19579 | -95.97198 | 23927 ft | 365 kts | 285° |
| 2026-05-04 12:19 | 32.20240 | -96.00055 | 23589 ft | 366 kts | 285° |
| 2026-05-04 12:19 | 32.20910 | -96.02956 | 23199 ft | 367 kts | 285° |
| 2026-05-04 12:20 | 32.21580 | -96.05862 | 22892 ft | 365 kts | 285° |
| 2026-05-04 12:20 | 32.22245 | -96.08748 | 22611 ft | 363 kts | 285° |
| 2026-05-04 12:20 | 32.22905 | -96.11613 | 22335 ft | 361 kts | 285° |
| 2026-05-04 12:20 | 32.23564 | -96.14475 | 22028 ft | 360 kts | 285° |
| 2026-05-04 12:21 | 32.24217 | -96.17319 | 21741 ft | 359 kts | 285° |
| 2026-05-04 12:21 | 32.24868 | -96.20154 | 21463 ft | 357 kts | 285° |
| 2026-05-04 12:21 | 32.25508 | -96.22944 | 21197 ft | 356 kts | 285° |
| 2026-05-04 12:21 | 32.26154 | -96.25766 | 20927 ft | 355 kts | 285° |
| 2026-05-04 12:22 | 32.26795 | -96.28568 | 20667 ft | 353 kts | 285° |
| 2026-05-04 12:22 | 32.27505 | -96.31330 | 20349 ft | 350 kts | 292° |
| 2026-05-04 12:22 | 32.28760 | -96.33801 | 20014 ft | 353 kts | 307° |
| 2026-05-04 12:22 | 32.30462 | -96.35895 | 19695 ft | 354 kts | 313° |
| 2026-05-04 12:23 | 32.32242 | -96.37900 | 19386 ft | 353 kts | 313° |
| 2026-05-04 12:23 | 32.34025 | -96.39894 | 19076 ft | 353 kts | 313° |
| 2026-05-04 12:23 | 32.35805 | -96.41898 | 18769 ft | 352 kts | 313° |
| 2026-05-04 12:23 | 32.37564 | -96.43895 | 18499 ft | 350 kts | 313° |
| 2026-05-04 12:24 | 32.39284 | -96.45861 | 18224 ft | 349 kts | 312° |
| 2026-05-04 12:24 | 32.41026 | -96.47860 | 17914 ft | 347 kts | 313° |
| 2026-05-04 12:24 | 32.42755 | -96.49849 | 17625 ft | 346 kts | 313° |
| 2026-05-04 12:24 | 32.44408 | -96.51753 | 17357 ft | 344 kts | 313° |
| 2026-05-04 12:25 | 32.46116 | -96.53721 | 17198 ft | 339 kts | 312° |
| 2026-05-04 12:25 | 32.47786 | -96.55644 | 17148 ft | 331 kts | 312° |
| 2026-05-04 12:25 | 32.49433 | -96.57542 | 16762 ft | 329 kts | 312° |
| 2026-05-04 12:25 | 32.51067 | -96.59413 | 16370 ft | 325 kts | 313° |
| 2026-05-04 12:26 | 32.52652 | -96.61224 | 15960 ft | 308 kts | 312° |
| 2026-05-04 12:26 | 32.54155 | -96.62944 | 15607 ft | 302 kts | 312° |
| 2026-05-04 12:26 | 32.55668 | -96.64681 | 15240 ft | 303 kts | 313° |
| 2026-05-04 12:26 | 32.57188 | -96.66423 | 14889 ft | 308 kts | 313° |
| 2026-05-04 12:27 | 32.58750 | -96.68187 | 14556 ft | 307 kts | 313° |
| 2026-05-04 12:27 | 32.60279 | -96.69904 | 14222 ft | 300 kts | 313° |
| 2026-05-04 12:27 | 32.61777 | -96.71586 | 13897 ft | 291 kts | 313° |
| 2026-05-04 12:27 | 32.63209 | -96.73197 | 13545 ft | 276 kts | 313° |
| 2026-05-04 12:28 | 32.64564 | -96.74724 | 13230 ft | 262 kts | 313° |
| 2026-05-04 12:28 | 32.65858 | -96.76185 | 12980 ft | 254 kts | 313° |
| 2026-05-04 12:28 | 32.67120 | -96.77616 | 12921 ft | 257 kts | 313° |
| 2026-05-04 12:28 | 32.68426 | -96.79100 | 12832 ft | 262 kts | 313° |
| 2026-05-04 12:29 | 32.69744 | -96.80597 | 12727 ft | 262 kts | 313° |
| 2026-05-04 12:29 | 32.71060 | -96.82092 | 12637 ft | 261 kts | 313° |
| 2026-05-04 12:29 | 32.72368 | -96.83577 | 12539 ft | 260 kts | 313° |
| 2026-05-04 12:29 | 32.73675 | -96.85062 | 12428 ft | 259 kts | 313° |
| 2026-05-04 12:30 | 32.74954 | -96.86514 | 12322 ft | 246 kts | 313° |
| 2026-05-04 12:30 | 32.76147 | -96.87866 | 12211 ft | 229 kts | 313° |
| 2026-05-04 12:30 | 32.77261 | -96.89132 | 12131 ft | 222 kts | 313° |
| 2026-05-04 12:30 | 32.78375 | -96.90398 | 12062 ft | 222 kts | 315° |
| 2026-05-04 12:31 | 32.79727 | -96.91324 | 11915 ft | 233 kts | 339° |
| 2026-05-04 12:31 | 32.81378 | -96.91574 | 11705 ft | 245 kts | 352° |
| 2026-05-04 12:31 | 32.83079 | -96.91574 | 11447 ft | 243 kts | 354° |
| 2026-05-04 12:31 | 32.84755 | -96.91536 | 11186 ft | 238 kts | 354° |
| 2026-05-04 12:32 | 32.86398 | -96.91499 | 10947 ft | 235 kts | 354° |
| 2026-05-04 12:32 | 32.89667 | -96.91449 | 10482 ft | 237 kts | 354° |
| 2026-05-04 12:32 | 32.91321 | -96.91431 | 10236 ft | 238 kts | 354° |
| 2026-05-04 12:33 | 32.92983 | -96.91416 | 10003 ft | 239 kts | 354° |
| 2026-05-04 12:33 | 32.94644 | -96.91404 | 9738 ft | 239 kts | 354° |
| 2026-05-04 12:33 | 32.96306 | -96.91392 | 9469 ft | 239 kts | 355° |
| 2026-05-04 12:33 | 32.97963 | -96.91381 | 9220 ft | 238 kts | 355° |
| 2026-05-04 12:34 | 32.99619 | -96.91370 | 8959 ft | 238 kts | 355° |
| 2026-05-04 12:34 | 33.01268 | -96.91359 | 8707 ft | 237 kts | 355° |
| 2026-05-04 12:34 | 33.02912 | -96.91348 | 8458 ft | 236 kts | 355° |
| 2026-05-04 12:34 | 33.04529 | -96.91338 | 8222 ft | 235 kts | 355° |
| 2026-05-04 12:35 | 33.06169 | -96.91328 | 7943 ft | 236 kts | 355° |
| 2026-05-04 12:35 | 33.07808 | -96.91317 | 7697 ft | 236 kts | 356° |
| 2026-05-04 12:35 | 33.09455 | -96.91307 | 7457 ft | 237 kts | 356° |
| 2026-05-04 12:35 | 33.11105 | -96.91296 | 7215 ft | 238 kts | 356° |
| 2026-05-04 12:36 | 33.12765 | -96.91286 | 6966 ft | 239 kts | 356° |
| 2026-05-04 12:36 | 33.14429 | -96.91275 | 6716 ft | 240 kts | 357° |
| 2026-05-04 12:36 | 33.16108 | -96.91264 | 6474 ft | 242 kts | 356° |
| 2026-05-04 12:36 | 33.17793 | -96.91253 | 6216 ft | 242 kts | 357° |
| 2026-05-04 12:37 | 33.19458 | -96.91242 | 5947 ft | 243 kts | 356° |
| 2026-05-04 12:37 | 33.21132 | -96.91313 | 5775 ft | 236 kts | 352° |
| 2026-05-04 12:37 | 33.22752 | -96.91473 | 5795 ft | 236 kts | 351° |
| 2026-05-04 12:37 | 33.24392 | -96.91651 | 5725 ft | 237 kts | 350° |
| 2026-05-04 12:38 | 33.25479 | -96.91779 | 5463 ft | 236 kts | 349° |
| 2026-05-04 12:38 | 33.29143 | -96.92740 | 4258 ft | 223 kts | 314° |
| 2026-05-04 12:38 | 33.30007 | -96.94120 | 3799 ft | 203 kts | 279° |
| 2026-05-04 12:39 | 33.30010 | -96.95691 | 3358 ft | 184 kts | 243° |
| 2026-05-04 12:39 | 33.29223 | -96.96808 | 3129 ft | 181 kts | 215° |
| 2026-05-04 12:39 | 33.28152 | -96.97666 | 3018 ft | 187 kts | 213° |
| 2026-05-04 12:39 | 33.27419 | -96.98174 | 2993 ft | 180 kts | 206° |
| 2026-05-04 12:40 | 33.27037 | -96.98386 | 2994 ft | 179 kts | 205° |
| 2026-05-04 12:40 | 33.24747 | -96.99512 | 2990 ft | 179 kts | 204° |
| 2026-05-04 12:40 | 33.23978 | -96.99871 | 3001 ft | 179 kts | 204° |
| 2026-05-04 12:40 | 33.22427 | -97.00597 | 2981 ft | 179 kts | 203° |
| 2026-05-04 12:41 | 33.21275 | -97.01143 | 2998 ft | 178 kts | 204° |
| 2026-05-04 12:41 | 33.20903 | -97.01318 | 2987 ft | 178 kts | 204° |
| 2026-05-04 12:41 | 33.19757 | -97.01856 | 2997 ft | 176 kts | 204° |
| 2026-05-04 12:41 | 33.18629 | -97.02383 | 2989 ft | 171 kts | 204° |
| 2026-05-04 12:42 | 33.16866 | -97.03197 | 2997 ft | 159 kts | 204° |
| 2026-05-04 12:42 | 33.14816 | -97.04126 | 2985 ft | 157 kts | 203° |
| 2026-05-04 12:42 | 33.14143 | -97.04437 | 2986 ft | 156 kts | 204° |
| 2026-05-04 12:43 | 33.13124 | -97.04906 | 2998 ft | 158 kts | 203° |
| 2026-05-04 12:43 | 33.12045 | -97.05163 | 3006 ft | 161 kts | 192° |
| 2026-05-04 12:43 | 33.10921 | -97.05269 | 2990 ft | 163 kts | 189° |
| 2026-05-04 12:43 | 33.09793 | -97.05320 | 2987 ft | 161 kts | 187° |
| 2026-05-04 12:44 | 33.08309 | -97.05349 | 2984 ft | 161 kts | 186° |
| 2026-05-04 12:44 | 33.07190 | -97.05361 | 3031 ft | 162 kts | 187° |
| 2026-05-04 12:44 | 33.06448 | -97.05366 | 2997 ft | 158 kts | 187° |
| 2026-05-04 12:44 | 33.05044 | -97.05373 | 3005 ft | 146 kts | 187° |
| 2026-05-04 12:45 | 33.04024 | -97.05382 | 2992 ft | 145 kts | 187° |
| 2026-05-04 12:45 | 33.03024 | -97.05388 | 2831 ft | 143 kts | 187° |
| 2026-05-04 12:45 | 33.02049 | -97.05393 | 2645 ft | 136 kts | 187° |
| 2026-05-04 12:45 | 33.01151 | -97.05397 | 2483 ft | 124 kts | 186° |
| 2026-05-04 12:46 | 33.00319 | -97.05404 | 2329 ft | 119 kts | 186° |
| 2026-05-04 12:46 | 32.99470 | -97.05411 | 2176 ft | 122 kts | 185° |
| 2026-05-04 12:46 | 32.98624 | -97.05416 | 2005 ft | 124 kts | 185° |
| 2026-05-04 12:46 | 32.97765 | -97.05421 | 1853 ft | 122 kts | 185° |
| 2026-05-04 12:47 | 32.97211 | -97.05425 | 1738 ft | 119 kts | 185° |
| 2026-05-04 12:47 | 32.96097 | -97.05435 | 1519 ft | 127 kts | 184° |
| 2026-05-04 12:47 | 32.95179 | -97.05439 | 1365 ft | 134 kts | 182° |
| 2026-05-04 12:47 | 32.94228 | -97.05443 | 1168 ft | 140 kts | 180° |
| 2026-05-04 12:48 | 32.93249 | -97.05448 | 987 ft | 141 kts | 181° |
| 2026-05-04 12:48 | 32.92276 | -97.05455 | 791 ft | 138 kts | 181° |
| 2026-05-04 12:48 | 32.91640 | -97.05458 | 675 ft | 138 kts | 181° |
| 2026-05-04 12:48 | 32.90713 | -97.05473 | 603 ft | 119 kts | 179° |
| 2026-05-04 12:49 | 32.89932 | -97.05476 | 603 ft | 56 kts | 181° |
| 2026-05-04 12:49 | 32.89666 | -97.05446 | 603 ft | 27 kts | 160° |
| 2026-05-04 12:49 | 32.89541 | -97.05375 | 603 ft | 15 kts | 152° |
| 2026-05-04 12:49 | 32.89481 | -97.05336 | 603 ft | 13 kts | 150° |
| 2026-05-04 12:50 | 32.89400 | -97.05239 | 603 ft | 13 kts | 105° |
| 2026-05-04 12:50 | 32.89401 | -97.05176 | 603 ft | 0 kts | 85° |
| 2026-05-04 12:50 | 32.89401 | -97.05164 | 603 ft | 9 kts | 86° |
| 2026-05-04 12:50 | 32.89404 | -97.05010 | 603 ft | 21 kts | 90° |
| 2026-05-04 12:51 | 32.89402 | -97.04877 | 603 ft | 15 kts | 91° |
| 2026-05-04 12:51 | 32.89411 | -97.04768 | 603 ft | 12 kts | 68° |
| 2026-05-04 12:51 | 32.89427 | -97.04697 | 603 ft | 9 kts | 85° |
| 2026-05-04 12:51 | 32.89429 | -97.04664 | 603 ft | 5 kts | 85° |
| 2026-05-04 12:52 | 32.89430 | -97.04628 | 603 ft | 0 kts | 92° |
| 2026-05-04 12:52 | 32.89430 | -97.04605 | 603 ft | 5 kts | 92° |
| 2026-05-04 12:52 | 32.89429 | -97.04562 | 603 ft | 5 kts | 91° |
| 2026-05-04 12:53 | 32.89428 | -97.04520 | 603 ft | 5 kts | 92° |
| 2026-05-04 12:53 | 32.89428 | -97.04491 | 603 ft | 5 kts | 89° |
| 2026-05-04 12:53 | 32.89428 | -97.04434 | 603 ft | 5 kts | 90° |
| 2026-05-04 12:53 | 32.89428 | -97.04392 | 603 ft | 5 kts | 89° |
| 2026-05-04 12:54 | 32.89429 | -97.04350 | 603 ft | 5 kts | 89° |
| 2026-05-04 12:54 | 32.89432 | -97.04307 | 603 ft | 5 kts | 76° |
| 2026-05-04 12:54 | 32.89437 | -97.04286 | 603 ft | 2 kts | 72° |
| 2026-05-04 12:54 | 32.89447 | -97.04270 | 603 ft | 2 kts | 44° |
| 2026-05-04 12:55 | 32.89462 | -97.04261 | 603 ft | 2 kts | 22° |
| 2026-05-04 12:55 | 32.89476 | -97.04259 | 603 ft | 0 kts | 1° |
| 2026-05-04 12:55 | 32.89486 | -97.04258 | 603 ft | 2 kts | 7° |
| 2026-05-04 12:56 | 32.89495 | -97.04255 | 603 ft | 0 kts | 14° |